createdAt,value
2022-12-12T00:01:04.249Z,1002.8
2022-12-12T00:03:59.373Z,1002.7
2022-12-12T00:06:59.378Z,1002.8
2022-12-12T00:09:59.382Z,1002.9
2022-12-12T00:12:59.382Z,1002.8
2022-12-12T00:15:59.432Z,1003
2022-12-12T00:18:59.396Z,1002.9
2022-12-12T00:21:59.397Z,1002.9
2022-12-12T00:24:59.400Z,1002.9
2022-12-12T00:27:59.409Z,1002.8
2022-12-12T00:30:59.443Z,1002.8
2022-12-12T00:33:59.459Z,1002.9
2022-12-12T00:36:59.419Z,1002.8
2022-12-12T00:39:59.416Z,1002.8
2022-12-12T00:42:59.427Z,1002.9
2022-12-12T00:45:59.529Z,1002.9
2022-12-12T00:48:59.427Z,1002.9
2022-12-12T00:51:59.456Z,1002.9
2022-12-12T00:54:59.442Z,1002.9
2022-12-12T00:57:59.438Z,1002.9
2022-12-12T01:00:59.446Z,1002.8
2022-12-12T01:03:59.451Z,1002.9
2022-12-12T01:06:59.460Z,1002.9
2022-12-12T01:09:59.492Z,1002.9
2022-12-12T01:12:59.462Z,1002.9
2022-12-12T01:15:59.515Z,1002.9
2022-12-12T01:18:59.470Z,1002.9
2022-12-12T01:21:59.475Z,1002.9
2022-12-12T01:24:59.477Z,1002.9
2022-12-12T01:27:59.503Z,1002.9
2022-12-12T01:30:59.524Z,1002.9
2022-12-12T01:33:59.481Z,1002.9
2022-12-12T01:36:59.496Z,1002.9
2022-12-12T01:39:59.499Z,1002.8
2022-12-12T01:42:59.507Z,1002.9
2022-12-12T01:45:59.542Z,1002.9
2022-12-12T01:48:59.514Z,1002.9
2022-12-12T01:51:59.511Z,1002.9
2022-12-12T01:54:59.522Z,1002.8
2022-12-12T01:57:59.523Z,1002.8
2022-12-12T02:00:59.551Z,1002.7
2022-12-12T02:03:59.558Z,1002.7
2022-12-12T02:06:59.540Z,1002.7
2022-12-12T02:09:59.547Z,1002.7
2022-12-12T02:12:59.548Z,1002.8
2022-12-12T02:15:59.613Z,1002.9
2022-12-12T02:18:59.552Z,1003
2022-12-12T02:21:59.579Z,1003.1
2022-12-12T02:24:59.565Z,1003
2022-12-12T02:27:59.563Z,1003
2022-12-12T02:30:59.563Z,1003.1
2022-12-12T02:33:59.569Z,1003.1
2022-12-12T02:36:59.574Z,1003.1
2022-12-12T02:39:59.721Z,1003.2
2022-12-12T02:42:59.578Z,1003.2
2022-12-12T02:45:59.586Z,1003.2
2022-12-12T02:48:59.582Z,1003.2
2022-12-12T02:51:59.587Z,1003.2
2022-12-12T02:54:59.583Z,1003.2
2022-12-12T02:57:59.731Z,1003.3
2022-12-12T03:00:59.648Z,1003.3
2022-12-12T03:03:59.611Z,1003.4
2022-12-12T03:06:59.657Z,1003.3
2022-12-12T03:09:59.640Z,1003.4
2022-12-12T03:12:59.643Z,1003.5
2022-12-12T03:15:59.743Z,1003.4
2022-12-12T03:18:59.669Z,1003.3
2022-12-12T03:21:59.672Z,1003.3
2022-12-12T03:24:59.673Z,1003.4
2022-12-12T03:27:59.680Z,1003.2
2022-12-12T03:30:59.699Z,1003.2
2022-12-12T03:33:59.733Z,1003.3
2022-12-12T03:36:59.718Z,1003.3
2022-12-12T03:39:59.724Z,1003.3
2022-12-12T03:42:59.723Z,1003.3
2022-12-12T03:45:59.767Z,1003.3
2022-12-12T03:48:59.737Z,1003.3
2022-12-12T03:51:59.778Z,1003.3
2022-12-12T03:54:59.757Z,1003.3
2022-12-12T03:57:59.754Z,1003.3
2022-12-12T04:00:59.803Z,1003.3
2022-12-12T04:03:59.760Z,1003.3
2022-12-12T04:06:59.768Z,1003.3
2022-12-12T04:09:59.799Z,1003.3
2022-12-12T04:12:59.773Z,1003.3
2022-12-12T04:15:59.781Z,1003.4
2022-12-12T04:18:59.785Z,1003.3
2022-12-12T04:21:59.787Z,1003.3
2022-12-12T04:24:59.786Z,1003.4
2022-12-12T04:27:59.822Z,1003.4
2022-12-12T04:30:59.788Z,1003.4
2022-12-12T04:33:59.798Z,1003.4
2022-12-12T04:36:59.798Z,1003.4
2022-12-12T04:39:59.802Z,1003.5
2022-12-12T04:42:59.810Z,1003.4
2022-12-12T04:45:59.873Z,1003.4
2022-12-12T04:48:59.816Z,1003.4
2022-12-12T04:51:59.825Z,1003.4
2022-12-12T04:54:59.827Z,1003.5
2022-12-12T04:57:59.833Z,1003.5
2022-12-12T05:00:59.881Z,1003.5
2022-12-12T05:03:59.874Z,1003.5
2022-12-12T05:06:59.852Z,1003.5
2022-12-12T05:09:59.857Z,1003.5
2022-12-12T05:12:59.862Z,1003.5
2022-12-12T05:15:59.855Z,1003.4
2022-12-12T05:18:59.864Z,1003.4
2022-12-12T05:21:59.893Z,1003.5
2022-12-12T05:24:59.866Z,1003.4
2022-12-12T05:27:59.872Z,1003.5
2022-12-12T05:30:59.947Z,1003.5
2022-12-12T05:33:59.895Z,1003.6
2022-12-12T05:36:59.902Z,1003.5
2022-12-12T05:39:59.940Z,1003.6
2022-12-12T05:42:59.909Z,1003.6
2022-12-12T05:45:59.924Z,1003.6
2022-12-12T05:48:59.912Z,1003.6
2022-12-12T05:51:59.920Z,1003.7
2022-12-12T05:54:59.924Z,1003.8
2022-12-12T05:57:59.944Z,1003.7
2022-12-12T06:01:03.145Z,1003.8
2022-12-12T06:03:59.967Z,1003.8
2022-12-12T06:06:59.937Z,1003.7
2022-12-12T06:09:59.945Z,1003.7
2022-12-12T06:12:59.951Z,1003.8
2022-12-12T06:15:59.998Z,1003.8
2022-12-12T06:18:59.955Z,1003.9
2022-12-12T06:21:59.966Z,1003.9
2022-12-12T06:24:59.959Z,1004
2022-12-12T06:27:59.967Z,1004
2022-12-12T06:31:00.022Z,1003.9
2022-12-12T06:34:00.010Z,1004
2022-12-12T06:36:59.986Z,1004
2022-12-12T06:39:59.987Z,1004
2022-12-12T06:42:59.992Z,1004.1
2022-12-12T06:46:00.044Z,1004.2
2022-12-12T06:48:59.991Z,1004.1
2022-12-12T06:52:00.097Z,1004.2
2022-12-12T06:55:00.003Z,1004.3
2022-12-12T06:58:00.013Z,1004.2
2022-12-12T07:01:00.030Z,1004.3
2022-12-12T07:04:00.025Z,1004.3
2022-12-12T07:07:00.025Z,1004.3
2022-12-12T07:10:00.080Z,1004.4
2022-12-12T07:13:00.043Z,1004.4
2022-12-12T07:16:00.106Z,1004.4
2022-12-12T07:19:00.058Z,1004.4
2022-12-12T07:22:04.253Z,1004.4
2022-12-12T07:25:00.072Z,1004.4
2022-12-12T07:28:00.101Z,1004.5
2022-12-12T07:31:00.133Z,1004.5
2022-12-12T07:34:00.081Z,1004.5
2022-12-12T07:37:03.005Z,1004.5
2022-12-12T07:40:00.097Z,1004.4
2022-12-12T07:43:00.082Z,1004.4
2022-12-12T07:46:00.184Z,1004.5
2022-12-12T07:49:00.090Z,1004.5
2022-12-12T07:52:00.098Z,1004.5
2022-12-12T07:55:00.131Z,1004.5
2022-12-12T07:58:00.104Z,1004.4
2022-12-12T08:01:00.109Z,1004.5
2022-12-12T08:04:00.902Z,1004.5
2022-12-12T08:07:04.137Z,1004.6
2022-12-12T08:10:00.157Z,1004.6
2022-12-12T08:13:00.126Z,1004.6
2022-12-12T08:16:00.198Z,1004.6
2022-12-12T08:19:00.129Z,1004.6
2022-12-12T08:22:00.159Z,1004.6
2022-12-12T08:25:00.153Z,1004.6
2022-12-12T08:28:00.142Z,1004.6
2022-12-12T08:31:00.259Z,1004.7
2022-12-12T08:34:00.156Z,1004.7
2022-12-12T08:37:00.152Z,1004.6
2022-12-12T08:40:00.381Z,1004.7
2022-12-12T08:43:00.163Z,1004.7
2022-12-12T08:46:00.163Z,1004.7
2022-12-12T08:49:00.167Z,1004.7
2022-12-12T08:52:00.173Z,1004.8
2022-12-12T08:55:00.195Z,1004.8
2022-12-12T08:58:00.226Z,1004.8
2022-12-12T09:01:00.350Z,1004.9
2022-12-12T09:04:00.194Z,1004.9
2022-12-12T09:07:03.566Z,1004.9
2022-12-12T09:10:00.234Z,1005
2022-12-12T09:13:00.206Z,1005
2022-12-12T09:16:00.277Z,1004.9
2022-12-12T09:19:00.214Z,1004.9
2022-12-12T09:22:00.220Z,1004.9
2022-12-12T09:25:00.237Z,1005.1
2022-12-12T09:28:00.238Z,1005
2022-12-12T09:31:00.336Z,1005
2022-12-12T09:34:00.265Z,1004.9
2022-12-12T09:37:00.248Z,1004.9
2022-12-12T09:40:00.258Z,1005.1
2022-12-12T09:43:00.263Z,1005.2
2022-12-12T09:46:00.301Z,1005.1
2022-12-12T09:49:00.265Z,1005.1
2022-12-12T09:52:00.324Z,1005.2
2022-12-12T09:55:00.296Z,1005.1
2022-12-12T09:58:00.283Z,1005.1
2022-12-12T10:01:00.329Z,1005.2
2022-12-12T10:04:00.285Z,1005.1
2022-12-12T10:07:00.286Z,1005.1
2022-12-12T10:10:00.330Z,1005.1
2022-12-12T10:13:00.295Z,1005
2022-12-12T10:16:00.318Z,1005
2022-12-12T10:19:00.305Z,1005
2022-12-12T10:22:00.321Z,1005
2022-12-12T10:25:00.327Z,1005.1
2022-12-12T10:28:00.351Z,1005.1
2022-12-12T10:31:00.321Z,1005
2022-12-12T10:34:01.621Z,1005.1
2022-12-12T10:37:00.327Z,1005.1
2022-12-12T10:40:00.343Z,1005.2
2022-12-12T10:43:00.335Z,1005.1
2022-12-12T10:46:00.435Z,1005.1
2022-12-12T10:49:00.346Z,1005.1
2022-12-12T10:52:00.355Z,1005.1
2022-12-12T10:55:00.367Z,1005.1
2022-12-12T10:58:00.365Z,1005.1
2022-12-12T11:01:00.407Z,1005.1
2022-12-12T11:04:00.408Z,1005
2022-12-12T11:07:00.385Z,1005
2022-12-12T11:10:02.370Z,1005
2022-12-12T11:13:00.390Z,1004.9
2022-12-12T11:16:00.397Z,1004.9
2022-12-12T11:19:00.402Z,1004.9
2022-12-12T11:22:00.428Z,1004.9
2022-12-12T11:25:00.426Z,1004.9
2022-12-12T11:28:04.923Z,1004.9
2022-12-12T11:31:00.412Z,1004.9
2022-12-12T11:34:00.416Z,1004.9
2022-12-12T11:37:00.419Z,1005.1
2022-12-12T11:40:00.460Z,1005
2022-12-12T11:43:00.429Z,1005.1
2022-12-12T11:46:00.462Z,1005.1
2022-12-12T11:49:00.447Z,1005
2022-12-12T11:52:00.440Z,1005
2022-12-12T11:55:00.462Z,1005
2022-12-12T11:58:03.761Z,1005
2022-12-12T12:01:00.462Z,1005
2022-12-12T12:04:00.493Z,1004.9
2022-12-12T12:07:01.485Z,1005
2022-12-12T12:10:00.497Z,1004.9
2022-12-12T12:13:00.478Z,1004.9
2022-12-12T12:16:00.629Z,1004.9
2022-12-12T12:19:00.480Z,1004.8
2022-12-12T12:22:00.544Z,1005
2022-12-12T12:25:00.500Z,1004.9
2022-12-12T12:28:00.494Z,1004.9
2022-12-12T12:31:00.530Z,1004.9
2022-12-12T12:34:00.529Z,1005
2022-12-12T12:37:00.504Z,1005
2022-12-12T12:40:00.533Z,1004.9
2022-12-12T12:43:00.519Z,1005
2022-12-12T12:46:00.583Z,1004.9
2022-12-12T12:49:00.535Z,1004.9
2022-12-12T12:52:00.562Z,1004.9
2022-12-12T12:55:00.559Z,1004.9
2022-12-12T12:58:00.546Z,1004.9
2022-12-12T13:01:00.591Z,1004.9
2022-12-12T13:04:00.555Z,1004.9
2022-12-12T13:07:00.566Z,1004.9
2022-12-12T13:10:00.601Z,1004.9
2022-12-12T13:13:00.564Z,1004.9
2022-12-12T13:16:00.617Z,1004.8
2022-12-12T13:19:00.577Z,1004.9
2022-12-12T13:22:00.580Z,1004.8
2022-12-12T13:25:00.696Z,1004.8
2022-12-12T13:28:00.613Z,1004.8
2022-12-12T13:31:00.628Z,1004.9
2022-12-12T13:34:00.605Z,1004.9
2022-12-12T13:37:00.601Z,1004.9
2022-12-12T13:40:00.614Z,1004.9
2022-12-12T13:43:05.635Z,1005
2022-12-12T13:46:00.755Z,1004.9
2022-12-12T13:49:00.620Z,1004.9
2022-12-12T13:52:00.624Z,1004.9
2022-12-12T13:55:00.640Z,1004.9
2022-12-12T13:58:00.632Z,1004.9
2022-12-12T14:01:00.632Z,1005
2022-12-12T14:04:00.667Z,1005
2022-12-12T14:07:00.649Z,1005.1
2022-12-12T14:10:00.665Z,1005.1
2022-12-12T14:13:00.654Z,1005.2
2022-12-12T14:16:00.749Z,1005.1
2022-12-12T14:19:00.663Z,1005.2
2022-12-12T14:22:00.699Z,1005.2
2022-12-12T14:25:00.690Z,1005.1
2022-12-12T14:28:00.678Z,1005.2
2022-12-12T14:31:00.763Z,1005.1
2022-12-12T14:34:00.687Z,1005.1
2022-12-12T14:37:00.689Z,1005.2
2022-12-12T14:40:00.746Z,1005.2
2022-12-12T14:43:16.169Z,1005.2
2022-12-12T14:46:00.961Z,1005.2
2022-12-12T14:49:00.711Z,1005.1
2022-12-12T14:52:00.710Z,1005.2
2022-12-12T14:55:00.728Z,1005.2
2022-12-12T14:58:00.743Z,1005.2
2022-12-12T15:01:00.724Z,1005.1
2022-12-12T15:04:00.770Z,1005.1
2022-12-12T15:07:00.728Z,1005.2
2022-12-12T15:10:00.745Z,1005.3
2022-12-12T15:13:00.737Z,1005.1
2022-12-12T15:16:00.891Z,1005.3
2022-12-12T15:19:00.749Z,1005.2
2022-12-12T15:22:00.756Z,1005.3
2022-12-12T15:25:00.763Z,1005.3
2022-12-12T15:28:00.755Z,1005.2
2022-12-12T15:31:00.815Z,1005.2
2022-12-12T15:34:00.788Z,1005.3
2022-12-12T15:37:00.767Z,1005.2
2022-12-12T15:40:00.781Z,1005.2
2022-12-12T15:43:00.773Z,1005.2
2022-12-12T15:46:00.774Z,1005.2
2022-12-12T15:49:00.779Z,1005.2
2022-12-12T15:52:00.807Z,1005.2
2022-12-12T15:55:00.798Z,1005.2
2022-12-12T15:58:00.794Z,1005.2
2022-12-12T16:01:00.827Z,1005.2
2022-12-12T16:04:00.803Z,1005.2
2022-12-12T16:07:00.803Z,1005.3
2022-12-12T16:10:00.847Z,1005.3
2022-12-12T16:13:00.818Z,1005.2
2022-12-12T16:16:00.842Z,1005.2
2022-12-12T16:19:00.819Z,1005.1
2022-12-12T16:22:00.824Z,1005.2
2022-12-12T16:25:00.861Z,1005.2
2022-12-12T16:28:00.946Z,1005.2
2022-12-12T16:31:00.835Z,1005.2
2022-12-12T16:34:00.835Z,1005.2
2022-12-12T16:37:00.836Z,1005.2
2022-12-12T16:40:00.954Z,1005.2
2022-12-12T16:43:02.656Z,1005.2
2022-12-12T16:46:00.943Z,1005.3
2022-12-12T16:49:00.846Z,1005.3
2022-12-12T16:52:00.845Z,1005.4
2022-12-12T16:55:00.857Z,1005.2
2022-12-12T16:58:00.857Z,1005.2
2022-12-12T17:01:00.925Z,1005.2
2022-12-12T17:04:00.987Z,1005.2
2022-12-12T17:07:00.907Z,1005.2
2022-12-12T17:10:00.930Z,1005.2
2022-12-12T17:13:00.941Z,1005.2
2022-12-12T17:16:01.009Z,1005.2
2022-12-12T17:19:00.965Z,1005.1
2022-12-12T17:22:00.999Z,1005.2
2022-12-12T17:25:00.986Z,1005.2
2022-12-12T17:28:00.985Z,1005.3
2022-12-12T17:31:01.000Z,1005.2
2022-12-12T17:34:00.988Z,1005.3
2022-12-12T17:37:00.995Z,1005.3
2022-12-12T17:40:01.030Z,1005.3
2022-12-12T17:43:00.998Z,1005.4
2022-12-12T17:46:01.150Z,1005.5
2022-12-12T17:49:01.003Z,1005.3
2022-12-12T17:52:01.019Z,1005.3
2022-12-12T17:55:52.689Z,1005.3
2022-12-12T17:58:01.048Z,1005.3
2022-12-12T18:01:01.077Z,1005.2
2022-12-12T18:04:01.086Z,1005.3
2022-12-12T18:07:01.038Z,1005.3
2022-12-12T18:10:01.039Z,1005.3
2022-12-12T18:13:01.047Z,1005.3
2022-12-12T18:16:01.085Z,1005.3
2022-12-12T18:19:01.060Z,1005.4
2022-12-12T18:22:02.003Z,1005.4
2022-12-12T18:25:01.061Z,1005.4
2022-12-12T18:28:01.065Z,1005.3
2022-12-12T18:31:01.067Z,1005.4
2022-12-12T18:34:01.107Z,1005.4
2022-12-12T18:37:01.088Z,1005.3
2022-12-12T18:40:01.091Z,1005.3
2022-12-12T18:43:01.100Z,1005.3
2022-12-12T18:46:01.130Z,1005.3
2022-12-12T18:49:01.105Z,1005.2
2022-12-12T18:52:01.131Z,1005.2
2022-12-12T18:55:01.116Z,1005.2
2022-12-12T18:58:01.125Z,1005.2
2022-12-12T19:01:01.169Z,1005.3
2022-12-12T19:04:04.606Z,1005.4
2022-12-12T19:07:01.143Z,1005.4
2022-12-12T19:10:01.178Z,1005.4
2022-12-12T19:13:01.153Z,1005.4
2022-12-12T19:16:01.164Z,1005.3
2022-12-12T19:19:01.159Z,1005.3
2022-12-12T19:22:05.263Z,1005.3
2022-12-12T19:25:01.170Z,1005.3
2022-12-12T19:28:01.203Z,1005.3
2022-12-12T19:31:01.218Z,1005.3
2022-12-12T19:34:01.186Z,1005.4
2022-12-12T19:37:01.187Z,1005.4
2022-12-12T19:40:01.196Z,1005.4
2022-12-12T19:43:01.197Z,1005.5
2022-12-12T19:46:01.402Z,1005.5
2022-12-12T19:49:01.210Z,1005.5
2022-12-12T19:52:01.217Z,1005.5
2022-12-12T19:55:01.216Z,1005.4
2022-12-12T19:58:01.213Z,1005.5
2022-12-12T20:01:01.292Z,1005.4
2022-12-12T20:04:01.246Z,1005.4
2022-12-12T20:07:01.221Z,1005.5
2022-12-12T20:10:01.234Z,1005.6
2022-12-12T20:13:01.227Z,1005.6
2022-12-12T20:16:01.284Z,1005.6
2022-12-12T20:19:01.236Z,1005.6
2022-12-12T20:22:02.714Z,1005.5
2022-12-12T20:25:01.244Z,1005.5
2022-12-12T20:28:01.253Z,1005.6
2022-12-12T20:31:01.283Z,1005.5
2022-12-12T20:34:01.263Z,1005.6
2022-12-12T20:37:01.263Z,1005.6
2022-12-12T20:40:01.290Z,1005.6
2022-12-12T20:43:03.482Z,1005.7
2022-12-12T20:46:01.308Z,1005.6
2022-12-12T20:49:01.375Z,1005.6
2022-12-12T20:52:01.289Z,1005.7
2022-12-12T20:55:01.291Z,1005.7
2022-12-12T20:58:01.328Z,1005.7
2022-12-12T21:01:01.303Z,1005.6
2022-12-12T21:04:01.305Z,1005.6
2022-12-12T21:07:01.311Z,1005.5
2022-12-12T21:10:01.318Z,1005.4
2022-12-12T21:13:01.327Z,1005.5
2022-12-12T21:16:01.397Z,1005.5
2022-12-12T21:19:01.327Z,1005.4
2022-12-12T21:22:01.336Z,1005.3
2022-12-12T21:25:01.338Z,1005.4
2022-12-12T21:28:01.344Z,1005.4
2022-12-12T21:31:01.378Z,1005.3
2022-12-12T21:34:01.380Z,1005.3
2022-12-12T21:37:01.365Z,1005.3
2022-12-12T21:40:01.369Z,1005.2
2022-12-12T21:43:01.372Z,1005.2
2022-12-12T21:46:01.451Z,1005.3
2022-12-12T21:49:01.420Z,1005.3
2022-12-12T21:52:01.417Z,1005.3
2022-12-12T21:55:01.392Z,1005.3
2022-12-12T21:58:01.389Z,1005.2
2022-12-12T22:01:01.409Z,1005.2
2022-12-12T22:04:01.401Z,1005.2
2022-12-12T22:07:01.405Z,1005.2
2022-12-12T22:10:10.704Z,1005.3
2022-12-12T22:13:01.415Z,1005.3
2022-12-12T22:16:01.452Z,1005.3
2022-12-12T22:19:05.459Z,1005.3
2022-12-12T22:22:01.434Z,1005.3
2022-12-12T22:25:01.432Z,1005.3
2022-12-12T22:28:01.459Z,1005.4
2022-12-12T22:31:01.536Z,1005.4
2022-12-12T22:34:01.453Z,1005.4
2022-12-12T22:37:01.449Z,1005.6
2022-12-12T22:40:01.452Z,1005.5
2022-12-12T22:43:01.458Z,1005.5
2022-12-12T22:46:01.487Z,1005.5
2022-12-12T22:49:01.467Z,1005.5
2022-12-12T22:52:01.473Z,1005.5
2022-12-12T22:55:01.475Z,1005.4
2022-12-12T22:58:01.480Z,1005.4
2022-12-12T23:01:01.487Z,1005.4
2022-12-12T23:04:01.564Z,1005.4
2022-12-12T23:07:01.486Z,1005.5
2022-12-12T23:10:01.498Z,1005.5
2022-12-12T23:13:01.504Z,1005.4
2022-12-12T23:16:01.534Z,1005.4
2022-12-12T23:19:01.510Z,1005.2
2022-12-12T23:22:01.544Z,1005.3
2022-12-12T23:25:01.522Z,1005.2
2022-12-12T23:28:01.528Z,1005.2
2022-12-12T23:31:01.534Z,1005.2
2022-12-12T23:34:01.534Z,1005.2
2022-12-12T23:37:01.545Z,1005.2
2022-12-12T23:40:01.568Z,1005.3
2022-12-12T23:43:01.541Z,1005.2
2022-12-12T23:46:01.614Z,1005.3
2022-12-12T23:49:01.556Z,1005.3
2022-12-12T23:52:01.554Z,1005.3
2022-12-12T23:55:01.561Z,1005.3
2022-12-12T23:58:01.590Z,1005.2
